This is the latest recevied weather packets stored in our database for station/object W8MRL. If no packets are shown the sender has not sent any weather packets the latest 10 day(s).
| Time | Temp. | Humidity | Pressure | Rain* | Wind** | Luminosity | Snow |
|---|---|---|---|---|---|---|---|
| 1777683619 | 8.33° C | 73% | 1020.2 hPa | 0 mm | - | - | - |
| 1777682717 | 8.33° C | 73% | 1020 hPa | 0 mm | - | - | - |
| 1777681819 | 8.33° C | 72% | 1019.6 hPa | 0 mm | - | - | - |
| 1777680916 | 9.44° C | 68% | 1019.5 hPa | 0 mm | - | - | - |
| 1777680016 | 10° C | 65% | 1019.6 hPa | 0 mm | - | - | - |
| 1777679116 | 11.11° C | 61% | 1019.6 hPa | 0 mm | - | - | - |
| 1777678214 | 12.22° C | 58% | 1019.6 hPa | 0 mm | - | - | - |
| 1777677313 | 11.67° C | 62% | 1019.5 hPa | 0 mm | - | - | - |
| 1777676412 | 12.22° C | 61% | 1019.4 hPa | 0 mm | - | - | - |
| 1777675512 | 11.11° C | 66% | 1019.5 hPa | 0 mm | - | - | - |
| 1777674613 | 11.11° C | 65% | 1019.6 hPa | 0 mm | - | - | - |
| 1777673711 | 11.67° C | 65% | 1019.5 hPa | 0 mm | - | - | - |
| 1777672811 | 12.22° C | 62% | 1019.3 hPa | 0 mm | - | - | - |
| 1777671910 | 12.78° C | 61% | 1019.3 hPa | 0 mm | - | - | - |
| 1777671008 | 12.78° C | 63% | 1019.4 hPa | 0 mm | - | - | - |
| 1777670107 | 11.67° C | 61% | 1019.5 hPa | 0 mm | - | - | - |
| 1777669206 | 11.67° C | 65% | 1019.4 hPa | 0 mm | - | - | - |
| 1777668306 | 11.67° C | 66% | 1019.5 hPa | 0 mm | - | - | - |
| 1777667405 | 12.22° C | 63% | 1019.5 hPa | 0 mm | - | - | - |
| 1777666504 | 11.67° C | 67% | 1019.5 hPa | 0 mm | - | - | - |
| 1777665602 | 11.67° C | 69% | 1019.5 hPa | 0 mm | - | - | - |
| 1777664701 | 12.22° C | 68% | 1019.4 hPa | 0 mm | - | - | - |
| 1777663860 | 11.11° C | 69% | 1019.5 hPa | 0 mm | - | - | - |
| 1777662960 | 10.56° C | 69% | 1019.3 hPa | 0 mm | - | - | - |
| 1777662065 | 11.67° C | 69% | 1019.4 hPa | 0 mm | - | - | - |
* Rain latest hour (hover to see other rain measurements)
** Current wind speed in m/s (hover to see current wind gust speed)